Time;durP1;ratioP1;P1;durP2;ratioP2;P2;SDS_P1;SDS_P2;PMS_P1;PMS_P2;Temp;Humidity;BMP_temperature;BMP_pressure;BME280_temperature;BME280_humidity;BME280_pressure;Samples;Min_cycle;Max_cycle;Signal;HPM_P1;HPM_P2
2022/05/14 00:00:46;;;;;;;4.80;1.48;;;;;18.50;101882.00;;;;5088947;28;20190;-74
2022/05/14 00:03:13;;;;;;;2.20;1.05;;;;;18.50;101873.00;;;;5087905;28;20715;-74
2022/05/14 00:05:41;;;;;;;4.53;1.10;;;;;18.50;101873.00;;;;5089743;28;20201;-74
2022/05/14 00:08:09;;;;;;;4.75;1.17;;;;;18.50;101865.00;;;;5087956;28;20291;-74
2022/05/14 00:13:03;;;;;;;4.25;1.38;;;;;18.50;101869.00;;;;5087904;28;20202;-74
2022/05/14 00:13:26;;;;;;;3.65;1.40;;;;;18.50;101862.00;;;;5088319;28;20228;-74
2022/05/14 00:15:53;;;;;;;3.90;1.15;;;;;18.50;101869.00;;;;5085693;28;20573;-74
2022/05/14 00:18:23;;;;;;;4.75;1.00;;;;;18.50;101860.00;;;;5085776;28;20604;-74
2022/05/14 00:20:51;;;;;;;6.35;1.00;;;;;18.50;101863.00;;;;5072863;28;20199;-74
2022/05/14 00:23:18;;;;;;;6.32;1.17;;;;;18.50;101860.00;;;;5084745;28;20442;-74
2022/05/14 00:25:46;;;;;;;4.35;1.27;;;;;18.50;101869.00;;;;5088851;28;20684;-74
2022/05/14 00:28:14;;;;;;;1.95;1.10;;;;;18.50;101857.00;;;;5085762;28;20245;-74
2022/05/14 00:30:43;;;;;;;5.70;1.40;;;;;18.50;101852.00;;;;5084116;28;20559;-74
2022/05/14 00:33:10;;;;;;;3.85;1.20;;;;;18.50;101854.00;;;;5088461;28;20244;-73
2022/05/14 00:35:38;;;;;;;5.05;1.30;;;;;18.50;101852.00;;;;5089151;28;20201;-74
2022/05/14 00:38:08;;;;;;;1.60;1.13;;;;;18.40;101851.00;;;;5088757;28;20210;-74
2022/05/14 00:40:38;;;;;;;4.20;1.27;;;;;18.40;101852.00;;;;5081592;28;20707;-74
2022/05/14 00:43:06;;;;;;;2.88;1.38;;;;;18.40;101850.00;;;;5072923;28;20198;-74
2022/05/14 00:45:36;;;;;;;3.83;1.10;;;;;18.40;101860.00;;;;5087604;28;20198;-74
2022/05/14 00:48:06;;;;;;;5.18;1.50;;;;;18.40;101860.00;;;;5083972;28;20289;-74
2022/05/14 00:50:39;;;;;;;2.17;1.05;;;;;18.30;101860.00;;;;5087451;28;20703;-74
2022/05/14 00:53:09;;;;;;;2.28;0.75;;;;;18.30;101855.00;;;;5089070;28;20217;-74
2022/05/14 00:55:37;;;;;;;4.15;1.13;;;;;18.30;101856.00;;;;5089376;28;20610;-74
2022/05/14 00:58:07;;;;;;;2.38;1.00;;;;;18.30;101863.00;;;;5087161;28;20229;-75
2022/05/14 01:00:34;;;;;;;3.13;1.10;;;;;18.30;101869.00;;;;5094301;28;20243;-74
2022/05/14 01:03:01;;;;;;;2.95;0.95;;;;;18.30;101863.00;;;;5092349;28;20205;-74
2022/05/14 01:05:31;;;;;;;2.75;1.15;;;;;18.20;101863.00;;;;5088392;28;20256;-74
2022/05/14 01:08:04;;;;;;;6.10;1.38;;;;;18.20;101858.00;;;;5085190;28;20195;-74
2022/05/14 01:10:37;;;;;;;4.00;1.20;;;;;18.20;101861.00;;;;5079843;28;20200;-74
2022/05/14 01:13:04;;;;;;;2.85;0.77;;;;;18.20;101860.00;;;;5083267;28;20223;-74
2022/05/14 01:15:42;;;;;;;3.08;1.10;;;;;18.10;101861.00;;;;5084979;28;20198;-74
2022/05/14 01:18:10;;;;;;;4.05;1.67;;;;;18.10;101865.00;;;;5085697;28;20203;-74
2022/05/14 01:20:40;;;;;;;2.85;1.58;;;;;18.10;101863.00;;;;5073003;28;20214;-74
2022/05/14 01:23:19;;;;;;;2.30;0.90;;;;;18.00;101858.00;;;;5082748;28;20205;-74
2022/05/14 01:28:45;;;;;;;2.95;0.98;;;;;18.00;101870.00;;;;5087731;28;20576;-74
2022/05/14 01:31:12;;;;;;;5.45;1.30;;;;;18.00;101872.00;;;;5085759;28;20194;-74
2022/05/14 01:33:40;;;;;;;6.43;1.00;;;;;17.90;101864.00;;;;5072586;28;20228;-74
2022/05/14 01:36:09;;;;;;;3.13;1.35;;;;;17.90;101870.00;;;;5100456;28;20208;-74
2022/05/14 01:38:36;;;;;;;5.72;1.10;;;;;17.90;101872.00;;;;5092906;28;20251;-74
2022/05/14 01:41:05;;;;;;;6.35;1.30;;;;;17.80;101875.00;;;;5087248;28;20218;-74
2022/05/14 01:43:35;;;;;;;1.95;1.20;;;;;17.80;101865.00;;;;5086063;28;20202;-74
2022/05/14 01:46:02;;;;;;;2.65;1.20;;;;;17.80;101862.00;;;;5088154;28;20672;-74
2022/05/14 01:48:33;;;;;;;1.63;0.80;;;;;17.70;101864.00;;;;5085868;28;20198;-74
2022/05/14 01:51:00;;;;;;;3.08;1.35;;;;;17.80;101869.00;;;;5084885;28;20214;-74
2022/05/14 01:53:27;;;;;;;2.03;1.08;;;;;17.70;101864.00;;;;5087705;28;20225;-74
2022/05/14 01:55:55;;;;;;;3.25;1.20;;;;;17.70;101875.00;;;;5087564;28;20213;-74
2022/05/14 02:01:09;;;;;;;1.92;1.02;;;;;17.60;101883.00;;;;5083251;28;20204;-74
2022/05/14 02:03:37;;;;;;;2.65;0.85;;;;;17.60;101876.00;;;;5081842;28;20198;-74
2022/05/14 02:06:05;;;;;;;2.13;1.17;;;;;17.60;101879.00;;;;5080185;28;20680;-74
2022/05/14 02:08:33;;;;;;;4.70;1.23;;;;;17.50;101877.00;;;;5087421;28;20190;-75
2022/05/14 02:11:00;;;;;;;3.00;1.02;;;;;17.50;101875.00;;;;5085675;28;20257;-74
2022/05/14 02:13:29;;;;;;;2.42;1.30;;;;;17.50;101877.00;;;;5085130;28;20214;-75
2022/05/14 02:15:57;;;;;;;4.05;1.05;;;;;17.40;101882.00;;;;5088042;28;20240;-74
2022/05/14 02:18:24;;;;;;;2.30;0.93;;;;;17.40;101883.00;;;;5087185;28;20198;-74
2022/05/14 02:20:52;;;;;;;4.72;1.45;;;;;17.40;101879.00;;;;5082385;28;20205;-74
2022/05/14 02:23:19;;;;;;;5.38;1.40;;;;;17.30;101880.00;;;;5083855;28;20206;-75
2022/05/14 02:25:47;;;;;;;3.25;1.10;;;;;17.30;101878.00;;;;5086578;28;20198;-74
2022/05/14 02:28:15;;;;;;;4.15;1.30;;;;;17.20;101881.00;;;;5088487;28;20201;-74
2022/05/14 02:30:44;;;;;;;2.25;1.08;;;;;17.20;101882.00;;;;5088242;28;20194;-75
2022/05/14 02:33:12;;;;;;;2.00;1.10;;;;;17.20;101879.00;;;;5085271;28;20218;-74
2022/05/14 02:35:40;;;;;;;1.98;1.00;;;;;17.10;101882.00;;;;5083205;28;20682;-74
2022/05/14 02:38:07;;;;;;;1.88;0.98;;;;;17.10;101881.00;;;;5076171;28;20255;-74
2022/05/14 02:40:35;;;;;;;3.60;0.93;;;;;17.10;101883.00;;;;5075679;28;20642;-74
2022/05/14 02:43:02;;;;;;;3.83;1.27;;;;;17.10;101889.00;;;;5075825;28;20705;-74
2022/05/14 02:45:29;;;;;;;2.75;1.30;;;;;17.00;101889.00;;;;5086964;28;20206;-75
2022/05/14 02:47:58;;;;;;;3.30;1.33;;;;;17.00;101883.00;;;;5087830;28;20206;-75
2022/05/14 02:50:25;;;;;;;1.75;1.05;;;;;17.00;101883.00;;;;5087806;28;20213;-75
2022/05/14 02:52:53;;;;;;;3.42;1.38;;;;;16.90;101885.00;;;;5082678;28;20233;-75
2022/05/14 02:55:21;;;;;;;2.45;1.17;;;;;16.90;101886.00;;;;5084998;28;20194;-75
2022/05/14 02:57:49;;;;;;;4.22;1.02;;;;;16.90;101889.00;;;;5087846;28;20202;-75
2022/05/14 03:00:20;;;;;;;2.60;1.20;;;;;16.80;101893.00;;;;5082823;28;20676;-74
2022/05/14 03:02:47;;;;;;;2.75;1.30;;;;;16.80;101892.00;;;;5081232;28;20297;-75
2022/05/14 03:05:19;;;;;;;2.75;1.25;;;;;16.80;101886.00;;;;5085890;28;20213;-75
2022/05/14 03:07:47;;;;;;;4.47;1.40;;;;;16.80;101889.00;;;;5087812;28;20283;-75
2022/05/14 03:10:14;;;;;;;3.95;1.33;;;;;16.70;101887.00;;;;5082524;28;20575;-75
2022/05/14 03:12:42;;;;;;;6.85;1.63;;;;;16.70;101887.00;;;;5077144;28;20195;-75
2022/05/14 03:15:12;;;;;;;4.25;1.35;;;;;16.70;101881.00;;;;5087475;28;20205;-75
2022/05/14 03:17:40;;;;;;;3.50;1.48;;;;;16.70;101878.00;;;;5087739;28;20235;-75
2022/05/14 03:20:10;;;;;;;2.80;1.60;;;;;16.70;101871.00;;;;5086293;28;20194;-74
2022/05/14 03:22:40;;;;;;;3.03;1.42;;;;;16.70;101870.00;;;;5083126;28;20198;-75
2022/05/14 03:25:09;;;;;;;2.85;1.48;;;;;16.70;101871.00;;;;5084498;28;20198;-75
2022/05/14 03:27:37;;;;;;;2.60;1.05;;;;;16.60;101874.00;;;;5086556;28;20194;-75
2022/05/14 03:30:05;;;;;;;1.88;1.20;;;;;16.60;101875.00;;;;5092348;28;20370;-74
2022/05/14 03:32:32;;;;;;;3.80;1.55;;;;;16.60;101873.00;;;;5086854;28;20627;-74
2022/05/14 03:35:01;;;;;;;5.60;1.50;;;;;16.60;101879.00;;;;5089242;28;20608;-74
2022/05/14 03:37:29;;;;;;;8.07;1.45;;;;;16.60;101879.00;;;;5090365;28;20268;-75
2022/05/14 03:39:57;;;;;;;3.22;1.35;;;;;16.60;101874.00;;;;5084136;28;20227;-74
2022/05/14 03:42:25;;;;;;;4.03;1.98;;;;;16.60;101881.00;;;;5089273;28;20221;-74
2022/05/14 03:44:53;;;;;;;8.13;1.60;;;;;16.60;101877.00;;;;5090283;28;20292;-75
2022/05/14 03:47:20;;;;;;;3.35;1.50;;;;;16.50;101883.00;;;;5090170;28;20214;-75
2022/05/14 03:49:47;;;;;;;5.13;1.58;;;;;16.50;101872.00;;;;5090979;28;20204;-75
2022/05/14 03:52:15;;;;;;;2.97;1.35;;;;;16.50;101871.00;;;;5089661;28;20222;-75
2022/05/14 03:54:45;;;;;;;4.03;1.77;;;;;16.50;101881.00;;;;5077444;28;20230;-75
2022/05/14 03:57:14;;;;;;;2.92;1.50;;;;;16.50;101888.00;;;;5077882;28;20206;-72
2022/05/14 03:59:42;;;;;;;2.65;1.48;;;;;16.50;101887.00;;;;5071321;28;20280;-73
2022/05/14 04:02:09;;;;;;;3.60;1.38;;;;;16.50;101885.00;;;;5087914;28;20680;-73
2022/05/14 04:04:36;;;;;;;2.38;1.63;;;;;16.50;101876.00;;;;5089989;28;20625;-73
2022/05/14 04:07:04;;;;;;;3.72;1.50;;;;;16.50;101877.00;;;;5088894;28;20202;-73
2022/05/14 04:09:34;;;;;;;5.80;1.80;;;;;16.50;101887.00;;;;5090080;28;20235;-74
2022/05/14 04:12:02;;;;;;;3.55;1.58;;;;;16.50;101896.00;;;;5083842;28;20300;-74
2022/05/14 04:14:30;;;;;;;2.65;1.80;;;;;16.50;101892.00;;;;5085753;28;20226;-74
2022/05/14 04:16:59;;;;;;;3.20;1.73;;;;;16.50;101892.00;;;;5089632;28;20190;-74
2022/05/14 04:19:26;;;;;;;4.05;1.92;;;;;16.50;101885.00;;;;5110981;28;20193;-74
2022/05/14 04:21:53;;;;;;;3.80;2.25;;;;;16.50;101888.00;;;;5091977;28;20194;-75
2022/05/14 04:24:21;;;;;;;6.22;1.98;;;;;16.50;101886.00;;;;5090943;28;21037;-73
2022/05/14 04:26:48;;;;;;;2.30;1.70;;;;;16.50;101891.00;;;;5088228;28;20198;-73
2022/05/14 04:29:15;;;;;;;3.92;1.90;;;;;16.50;101896.00;;;;5090198;28;20201;-73
2022/05/14 04:31:44;;;;;;;3.58;1.58;;;;;16.50;101896.00;;;;5086412;28;20201;-74
2022/05/14 04:34:12;;;;;;;6.45;2.13;;;;;16.50;101891.00;;;;5089318;28;20657;-74
2022/05/14 04:36:40;;;;;;;4.30;2.20;;;;;16.50;101895.00;;;;5087538;28;20796;-74
2022/05/14 04:39:07;;;;;;;3.70;2.55;;;;;16.60;101902.00;;;;5080025;28;20245;-73
2022/05/14 04:41:35;;;;;;;5.43;2.38;;;;;16.60;101902.00;;;;5081784;28;20187;-74
2022/05/14 04:44:03;;;;;;;5.95;2.17;;;;;16.60;101904.00;;;;5089372;28;20198;-74
2022/05/14 04:46:31;;;;;;;5.63;2.10;;;;;16.60;101894.00;;;;5089507;28;20217;-73
2022/05/14 04:49:00;;;;;;;5.55;2.30;;;;;16.60;101904.00;;;;5088256;28;20202;-74
2022/05/14 04:51:27;;;;;;;5.22;2.28;;;;;16.70;101911.00;;;;5083478;28;20977;-74
2022/05/14 04:53:54;;;;;;;3.83;2.13;;;;;16.70;101913.00;;;;5088179;28;20229;-74
2022/05/14 04:56:21;;;;;;;4.30;2.88;;;;;16.80;101919.00;;;;5088615;28;20199;-74
2022/05/14 04:58:49;;;;;;;5.25;2.70;;;;;16.80;101924.00;;;;5081047;28;20253;-74
2022/05/14 05:01:16;;;;;;;5.80;2.70;;;;;16.80;101921.00;;;;5085482;28;20194;-74
2022/05/14 05:03:42;;;;;;;4.72;2.42;;;;;16.90;101915.00;;;;5084080;28;20209;-74
2022/05/14 05:06:14;;;;;;;4.93;2.85;;;;;16.90;101923.00;;;;5087854;28;20197;-75
2022/05/14 05:08:42;;;;;;;6.05;2.70;;;;;17.00;101924.00;;;;5073349;28;20222;-74
2022/05/14 05:11:10;;;;;;;9.52;2.72;;;;;17.10;101930.00;;;;5075417;28;20187;-74
2022/05/14 05:13:37;;;;;;;5.63;2.55;;;;;17.10;101927.00;;;;5087184;28;20221;-74
2022/05/14 05:16:05;;;;;;;8.38;3.00;;;;;17.20;101932.00;;;;5088872;28;20214;-74
2022/05/14 05:18:32;;;;;;;7.13;2.88;;;;;17.20;101924.00;;;;5087488;28;20202;-74
2022/05/14 05:21:02;;;;;;;4.38;2.60;;;;;17.30;101931.00;;;;5087753;28;20595;-74
2022/05/14 05:23:31;;;;;;;4.72;2.85;;;;;17.30;101928.00;;;;5088661;28;20210;-74
2022/05/14 05:25:59;;;;;;;5.82;2.65;;;;;17.40;101936.00;;;;5080327;28;20205;-74
2022/05/14 05:28:27;;;;;;;5.22;2.65;;;;;17.50;101934.00;;;;5081192;28;20206;-75
2022/05/14 05:30:55;;;;;;;3.80;2.60;;;;;17.50;101942.00;;;;5078793;28;20218;-75
2022/05/14 05:33:25;;;;;;;4.10;2.22;;;;;17.60;101935.00;;;;5076959;28;20247;-74
2022/05/14 05:35:53;;;;;;;6.38;2.67;;;;;17.60;101948.00;;;;5087221;28;20203;-74
2022/05/14 05:38:20;;;;;;;5.38;2.90;;;;;17.70;101951.00;;;;5083556;28;20210;-76
2022/05/14 05:40:50;;;;;;;3.97;2.25;;;;;17.70;101950.00;;;;5057306;28;20238;-76
2022/05/14 05:43:17;;;;;;;6.70;3.22;;;;;17.90;101950.00;;;;5073648;28;20726;-75
2022/05/14 05:45:51;;;;;;;4.53;2.88;;;;;17.90;101949.00;;;;5074898;28;20202;-75
2022/05/14 05:48:19;;;;;;;5.38;3.20;;;;;18.10;101947.00;;;;5082998;28;20195;-75
2022/05/14 05:50:48;;;;;;;5.50;3.13;;;;;18.20;101951.00;;;;5076169;28;20222;-75
2022/05/14 05:53:17;;;;;;;6.32;3.63;;;;;18.30;101969.00;;;;5081102;28;20559;-75
2022/05/14 05:58:31;;;;;;;7.78;3.38;;;;;18.40;101970.00;;;;5085187;28;20209;-75
2022/05/14 06:00:59;;;;;;;6.32;3.17;;;;;18.60;101965.00;;;;5085288;28;20194;-75
2022/05/14 06:03:26;;;;;;;6.65;3.47;;;;;18.70;101970.00;;;;5087120;28;20198;-75
2022/05/14 06:05:54;;;;;;;7.93;3.78;;;;;18.80;101972.00;;;;5087495;28;20202;-74
2022/05/14 06:08:21;;;;;;;5.65;3.67;;;;;18.90;101977.00;;;;5083065;28;20213;-75
2022/05/14 06:10:48;;;;;;;6.65;3.42;;;;;19.00;101972.00;;;;5087979;28;20191;-75
2022/05/14 06:13:17;;;;;;;8.05;3.75;;;;;19.10;101980.00;;;;5087305;28;20240;-75
2022/05/14 06:15:46;;;;;;;9.18;4.72;;;;;19.20;101976.00;;;;5084771;28;20226;-75
2022/05/14 06:18:13;;;;;;;8.98;4.03;;;;;19.30;101971.00;;;;5082890;28;20233;-75
2022/05/14 06:20:40;;;;;;;8.05;3.53;;;;;19.40;101972.00;;;;5082949;28;20788;-75
2022/05/14 06:23:08;;;;;;;13.07;4.22;;;;;19.40;101972.00;;;;5083818;28;20205;-75
2022/05/14 06:25:36;;;;;;;8.68;4.53;;;;;19.60;101973.00;;;;5085949;28;20198;-76
2022/05/14 06:28:04;;;;;;;6.32;4.07;;;;;19.60;101979.00;;;;5086440;28;20277;-74
2022/05/14 06:30:33;;;;;;;10.35;4.45;;;;;19.70;101970.00;;;;5086373;28;20198;-74
2022/05/14 06:33:04;;;;;;;8.30;4.15;;;;;19.80;101969.00;;;;5081871;28;20198;-75
2022/05/14 06:35:33;;;;;;;9.77;3.80;;;;;19.90;101977.00;;;;5086766;28;20222;-75
2022/05/14 06:38:01;;;;;;;10.65;4.78;;;;;20.00;101987.00;;;;5087123;28;20285;-76
2022/05/14 06:40:28;;;;;;;8.85;3.75;;;;;20.10;101984.00;;;;5087583;28;20218;-76
2022/05/14 06:42:55;;;;;;;9.10;4.03;;;;;20.20;101981.00;;;;5081119;28;20198;-75
2022/05/14 06:45:23;;;;;;;8.85;3.78;;;;;20.30;101979.00;;;;5083343;28;20202;-74
2022/05/14 06:47:50;;;;;;;9.40;4.45;;;;;20.40;101980.00;;;;5086520;28;20198;-74
2022/05/14 06:50:19;;;;;;;11.45;4.93;;;;;20.40;101986.00;;;;5080736;28;20191;-74
2022/05/14 06:53:02;;;;;;;12.48;4.45;;;;;20.50;102000.00;;;;5081642;28;20210;-74
2022/05/14 06:55:35;;;;;;;8.77;4.47;;;;;20.70;101991.00;;;;5085294;28;20225;-74
2022/05/14 06:58:03;;;;;;;7.78;3.97;;;;;20.80;101998.00;;;;5086068;28;20248;-74
2022/05/14 07:00:30;;;;;;;8.07;4.50;;;;;20.90;101989.00;;;;5088911;28;20199;-74
2022/05/14 07:08:26;;;;;;;10.80;4.00;;;;;21.20;101996.00;;;;5088109;28;20209;-74
2022/05/14 07:10:53;;;;;;;6.90;4.22;;;;;21.30;102003.00;;;;5087324;28;20676;-73
2022/05/14 07:13:21;;;;;;;9.48;3.90;;;;;21.40;102002.00;;;;5091082;28;20194;-74
2022/05/14 07:15:48;;;;;;;12.95;4.75;;;;;21.50;101999.00;;;;5089415;28;20229;-75
2022/05/14 07:18:15;;;;;;;8.32;4.20;;;;;21.60;102003.00;;;;5088748;28;20572;-75
2022/05/14 07:20:44;;;;;;;10.20;4.40;;;;;21.70;101999.00;;;;5083788;28;20198;-75
2022/05/14 07:23:11;;;;;;;7.43;4.32;;;;;21.90;101992.00;;;;5086873;28;20583;-75
2022/05/14 07:25:38;;;;;;;10.80;4.50;;;;;22.00;102007.00;;;;5085724;28;20194;-75
2022/05/14 07:28:08;;;;;;;7.03;3.90;;;;;22.20;102008.00;;;;5088532;28;20213;-74
2022/05/14 07:30:35;;;;;;;7.35;3.80;;;;;22.30;102007.00;;;;5088352;28;20281;-74
2022/05/14 07:33:03;;;;;;;10.02;4.45;;;;;22.50;102007.00;;;;5090883;28;20197;-75
2022/05/14 07:35:31;;;;;;;7.05;3.25;;;;;22.60;102009.00;;;;5082624;28;20297;-75
2022/05/14 07:38:02;;;;;;;6.85;3.53;;;;;22.70;102012.00;;;;5085321;28;20216;-75
2022/05/14 07:40:32;;;;;;;9.95;3.60;;;;;22.80;102013.00;;;;5084206;28;20222;-75
2022/05/14 07:43:03;;;;;;;9.65;4.07;;;;;23.00;102011.00;;;;5089570;28;20696;-75
2022/05/14 07:45:35;;;;;;;12.95;4.25;;;;;23.10;102011.00;;;;5075572;28;21561;-74
2022/05/14 07:48:06;;;;;;;9.07;3.30;;;;;23.30;102014.00;;;;5086226;28;20198;-73
2022/05/14 07:50:33;;;;;;;8.65;3.90;;;;;23.40;102014.00;;;;5088232;28;20190;-74
2022/05/14 07:53:02;;;;;;;12.02;2.72;;;;;23.60;102022.00;;;;5086930;28;20199;-73
2022/05/14 07:55:29;;;;;;;7.50;2.30;;;;;23.70;102013.00;;;;5080375;28;20238;-74
2022/05/14 07:57:56;;;;;;;6.90;2.10;;;;;23.80;102018.00;;;;5086562;28;20194;-74
2022/05/14 08:00:24;;;;;;;12.35;2.88;;;;;23.90;102019.00;;;;5088470;28;20188;-75
2022/05/14 08:02:52;;;;;;;8.63;2.55;;;;;24.10;102021.00;;;;5081330;28;20229;-75
2022/05/14 08:05:20;;;;;;;6.90;2.33;;;;;24.20;102019.00;;;;5073978;28;20202;-74
2022/05/14 08:07:48;;;;;;;9.60;2.30;;;;;24.20;102016.00;;;;5086910;28;20293;-75
2022/05/14 08:10:17;;;;;;;5.90;2.10;;;;;24.30;102015.00;;;;5086857;28;20206;-75
2022/05/14 08:12:47;;;;;;;8.07;2.03;;;;;24.40;102016.00;;;;5081248;28;20206;-75
2022/05/14 08:15:16;;;;;;;8.82;2.30;;;;;24.50;102012.00;;;;5086648;28;20233;-76
2022/05/14 08:17:44;;;;;;;7.40;2.35;;;;;24.60;102009.00;;;;5079683;28;20553;-76
2022/05/14 08:20:12;;;;;;;8.02;2.33;;;;;24.80;102009.00;;;;5086563;28;20286;-75
2022/05/14 08:25:26;;;;;;;6.25;1.45;;;;;25.00;102019.00;;;;5084485;28;20372;-75
2022/05/14 08:27:53;;;;;;;6.57;1.83;;;;;25.10;102009.00;;;;5078700;28;20290;-75
2022/05/14 08:30:23;;;;;;;7.43;2.15;;;;;25.10;102017.00;;;;5069961;28;20673;-75
2022/05/14 08:32:50;;;;;;;11.15;2.20;;;;;25.30;102014.00;;;;5076601;28;20232;-75
2022/05/14 08:35:19;;;;;;;7.68;2.38;;;;;25.40;102019.00;;;;5080491;28;20214;-75
2022/05/14 08:37:48;;;;;;;8.30;2.47;;;;;25.60;102026.00;;;;5086910;28;20217;-75
2022/05/14 08:40:20;;;;;;;6.95;1.90;;;;;25.70;102015.00;;;;5090177;28;20226;-75
2022/05/14 08:42:54;;;;;;;6.53;1.63;;;;;25.80;102011.00;;;;5089680;28;20197;-74
2022/05/14 08:45:24;;;;;;;5.07;2.00;;;;;26.00;102016.00;;;;5089984;28;20860;-76
2022/05/14 08:47:56;;;;;;;6.18;2.15;;;;;26.10;102021.00;;;;5089978;28;20202;-75
2022/05/14 08:50:27;;;;;;;5.97;2.50;;;;;26.20;102022.00;;;;5097084;28;20288;-75
2022/05/14 08:53:00;;;;;;;4.47;1.92;;;;;26.40;102021.00;;;;5109719;28;20190;-75
2022/05/14 08:55:31;;;;;;;8.23;1.85;;;;;26.60;102015.00;;;;5069949;28;20490;-75
2022/05/14 08:58:08;;;;;;;5.45;2.33;;;;;26.70;102025.00;;;;5088242;28;20209;-75
2022/05/14 09:00:35;;;;;;;5.55;1.85;;;;;26.90;102018.00;;;;5083870;28;20220;-75
2022/05/14 09:03:03;;;;;;;9.10;2.38;;;;;26.90;102023.00;;;;5090269;28;20201;-75
2022/05/14 09:05:32;;;;;;;5.20;2.53;;;;;26.90;102017.00;;;;5089314;28;20224;-75
2022/05/14 09:08:01;;;;;;;5.55;1.77;;;;;26.90;102023.00;;;;5089711;28;20545;-75
2022/05/14 09:10:31;;;;;;;7.07;2.35;;;;;26.90;102022.00;;;;5089972;28;20717;-75
2022/05/14 09:13:02;;;;;;;5.78;2.03;;;;;26.90;102020.00;;;;5089713;28;20277;-75
2022/05/14 09:15:32;;;;;;;5.63;2.08;;;;;26.90;102027.00;;;;5089278;28;21039;-75
2022/05/14 09:18:08;;;;;;;5.45;1.90;;;;;27.00;102022.00;;;;5089238;28;20194;-75
2022/05/14 09:20:43;;;;;;;7.25;2.08;;;;;27.10;102025.00;;;;5089645;28;20256;-75
2022/05/14 09:23:10;;;;;;;5.18;1.98;;;;;27.30;102023.00;;;;5088439;28;20186;-75
2022/05/14 09:25:40;;;;;;;8.52;1.98;;;;;27.40;102030.00;;;;5089307;28;20213;-75
2022/05/14 09:28:11;;;;;;;5.80;2.38;;;;;27.50;102026.00;;;;5084537;28;20198;-76
2022/05/14 09:30:41;;;;;;;6.00;2.00;;;;;27.60;102023.00;;;;5078076;28;20783;-75
2022/05/14 09:33:22;;;;;;;8.07;2.47;;;;;27.70;102027.00;;;;5081817;28;20199;-76
2022/05/14 09:35:56;;;;;;;4.93;1.42;;;;;27.80;102028.00;;;;5068061;28;20230;-75
2022/05/14 09:38:24;;;;;;;8.75;2.10;;;;;27.90;102034.00;;;;5068986;28;20226;-76
2022/05/14 09:40:52;;;;;;;9.77;1.95;;;;;28.10;102026.00;;;;5068256;28;20795;-75
2022/05/14 09:43:32;;;;;;;5.22;1.77;;;;;28.20;102033.00;;;;5069316;28;20286;-76
2022/05/14 09:46:03;;;;;;;4.18;2.00;;;;;28.40;102028.00;;;;5086342;28;20233;-75
2022/05/14 09:48:36;;;;;;;7.03;2.33;;;;;28.50;102027.00;;;;5088928;28;20206;-76
2022/05/14 09:51:06;;;;;;;7.72;2.63;;;;;28.60;102026.00;;;;5086272;28;20340;-75
2022/05/14 09:53:35;;;;;;;5.15;1.90;;;;;28.70;102035.00;;;;5088791;28;20573;-75
2022/05/14 09:56:32;;;;;;;6.43;2.15;;;;;28.70;102039.00;;;;5088911;28;20232;-75
2022/05/14 09:59:22;;;;;;;7.25;2.08;;;;;28.80;102032.00;;;;5067004;28;20198;-75
2022/05/14 10:01:55;;;;;;;6.65;2.00;;;;;29.00;102037.00;;;;5077066;28;20198;-76
2022/05/14 10:04:40;;;;;;;6.00;2.05;;;;;29.00;102034.00;;;;5088609;28;20202;-76
2022/05/14 10:07:15;;;;;;;4.40;1.45;;;;;29.10;102042.00;;;;5089032;28;20202;-76
2022/05/14 10:09:53;;;;;;;6.28;2.17;;;;;29.20;102045.00;;;;5088769;28;20197;-76
2022/05/14 10:12:27;;;;;;;7.20;1.90;;;;;29.20;102049.00;;;;5089088;28;20209;-76
2022/05/14 10:15:04;;;;;;;4.97;2.10;;;;;29.20;102040.00;;;;5088371;28;20216;-76
2022/05/14 10:17:46;;;;;;;6.18;2.25;;;;;29.10;102047.00;;;;5088453;28;20198;-74
2022/05/14 10:20:26;;;;;;;5.13;2.08;;;;;29.20;102040.00;;;;5084963;28;20209;-73
2022/05/14 10:28:58;;;;;;;4.75;1.80;;;;;29.40;102038.00;;;;5067174;28;20290;-73
2022/05/14 10:31:34;;;;;;;5.65;2.40;;;;;29.50;102047.00;;;;5067577;28;20214;-76
2022/05/14 10:34:08;;;;;;;4.93;1.85;;;;;29.60;102045.00;;;;5068210;28;20213;-75
2022/05/14 10:36:41;;;;;;;5.50;1.98;;;;;29.70;102042.00;;;;5085501;28;20234;-76
2022/05/14 10:39:14;;;;;;;6.82;2.22;;;;;29.70;102038.00;;;;5092597;28;20202;-75
2022/05/14 10:41:45;;;;;;;8.70;2.80;;;;;29.70;102040.00;;;;5092134;28;20198;-75
2022/05/14 10:44:18;;;;;;;6.07;1.95;;;;;29.80;102041.00;;;;5092432;28;20198;-75
2022/05/14 10:46:49;;;;;;;7.18;2.70;;;;;29.80;102045.00;;;;5091470;28;20197;-75
2022/05/14 10:49:25;;;;;;;5.63;2.25;;;;;29.70;102042.00;;;;5090559;28;20198;-75
2022/05/14 10:51:55;;;;;;;5.72;1.67;;;;;29.80;102037.00;;;;5092367;28;20687;-76
2022/05/14 10:54:24;;;;;;;4.95;1.85;;;;;29.80;102038.00;;;;5092155;28;20729;-76
2022/05/14 10:56:56;;;;;;;6.00;2.40;;;;;29.80;102041.00;;;;5091948;28;20436;-75
2022/05/14 10:59:34;;;;;;;11.60;2.30;;;;;29.70;102041.00;;;;5091956;28;20197;-75
2022/05/14 11:02:05;;;;;;;7.43;2.28;;;;;29.70;102045.00;;;;5092256;28;20201;-73
2022/05/14 11:04:45;;;;;;;4.85;1.60;;;;;29.70;102050.00;;;;5092391;28;20201;-74
2022/05/14 11:07:14;;;;;;;5.40;2.05;;;;;29.80;102046.00;;;;5092445;28;20210;-74
2022/05/14 11:09:44;;;;;;;8.75;2.40;;;;;29.80;102045.00;;;;5091517;28;20202;-73
2022/05/14 11:12:15;;;;;;;7.75;2.25;;;;;29.70;102053.00;;;;5092296;28;20190;-74
2022/05/14 11:14:45;;;;;;;4.00;1.50;;;;;29.70;102052.00;;;;5091547;28;20198;-74
2022/05/14 11:17:25;;;;;;;5.25;2.10;;;;;29.50;102046.00;;;;5090876;28;20248;-74
2022/05/14 11:19:53;;;;;;;5.75;1.83;;;;;29.60;102048.00;;;;5079636;28;20637;-73
2022/05/14 11:22:25;;;;;;;10.18;2.40;;;;;29.50;102043.00;;;;5079847;28;20716;-74
2022/05/14 11:24:53;;;;;;;5.57;1.98;;;;;29.40;102051.00;;;;5091263;28;20205;-74
2022/05/14 11:27:30;;;;;;;7.28;2.22;;;;;29.30;102057.00;;;;5090549;28;20205;-74
2022/05/14 11:30:02;;;;;;;5.28;1.92;;;;;29.30;102048.00;;;;5090154;28;20205;-74
2022/05/14 11:32:42;;;;;;;6.47;1.80;;;;;29.10;102040.00;;;;5090748;28;20186;-74
2022/05/14 11:35:10;;;;;;;8.30;2.22;;;;;29.10;102051.00;;;;5090992;28;20194;-74
2022/05/14 11:37:40;;;;;;;9.93;2.40;;;;;29.00;102048.00;;;;5090357;28;20202;-74
2022/05/14 11:40:26;;;;;;;8.25;1.65;;;;;29.00;102049.00;;;;5090531;28;20233;-73
2022/05/14 11:43:07;;;;;;;11.73;2.30;;;;;29.00;102052.00;;;;5090262;28;20198;-74
2022/05/14 11:45:35;;;;;;;6.82;2.50;;;;;29.10;102056.00;;;;5088947;28;20194;-74
2022/05/14 11:48:08;;;;;;;10.00;2.30;;;;;29.10;102045.00;;;;5089779;28;20692;-74
2022/05/14 11:50:41;;;;;;;10.35;2.78;;;;;29.10;102051.00;;;;5088487;28;20198;-74
2022/05/14 11:53:23;;;;;;;5.15;2.50;;;;;29.10;102053.00;;;;5090988;28;20209;-74
2022/05/14 11:55:54;;;;;;;7.07;2.20;;;;;29.10;102050.00;;;;5088942;28;20225;-74
2022/05/14 11:58:29;;;;;;;6.70;1.92;;;;;29.20;102063.00;;;;5072179;28;20691;-74
2022/05/14 12:00:58;;;;;;;6.25;1.77;;;;;29.20;102054.00;;;;5081005;28;20640;-74
2022/05/14 12:03:33;;;;;;;6.57;1.95;;;;;29.20;102060.00;;;;5091587;28;20224;-74
2022/05/14 12:06:08;;;;;;;5.22;2.40;;;;;29.20;102049.00;;;;5090677;28;20924;-74
2022/05/14 12:09:02;;;;;;;6.07;1.83;;;;;29.20;102051.00;;;;5090767;28;20251;-75
2022/05/14 12:11:36;;;;;;;6.43;2.10;;;;;29.30;102048.00;;;;5091447;28;20280;-74
2022/05/14 12:14:12;;;;;;;7.07;2.92;;;;;29.30;102055.00;;;;5091401;28;20273;-74
2022/05/14 12:16:42;;;;;;;6.55;2.40;;;;;29.40;102061.00;;;;5090181;28;20233;-75
2022/05/14 12:19:17;;;;;;;7.22;2.05;;;;;29.30;102059.00;;;;5088882;28;20626;-75
2022/05/14 12:21:52;;;;;;;8.07;2.40;;;;;29.40;102060.00;;;;5077852;28;20217;-75
2022/05/14 12:24:22;;;;;;;8.23;2.25;;;;;29.40;102052.00;;;;5070410;28;20209;-75
2022/05/14 12:26:49;;;;;;;6.38;2.53;;;;;29.40;102052.00;;;;5072194;28;20549;-75
2022/05/14 12:29:25;;;;;;;7.28;2.13;;;;;29.30;102052.00;;;;5090325;28;20197;-75
2022/05/14 12:34:59;;;;;;;7.78;2.58;;;;;29.30;102045.00;;;;5038730;28;20783;-74
2022/05/14 12:37:31;;;;;;;4.65;2.00;;;;;29.30;102043.00;;;;5058106;28;20214;-74
2022/05/14 12:39:59;;;;;;;6.68;1.98;;;;;29.30;102041.00;;;;5086624;28;20227;-75
2022/05/14 12:42:34;;;;;;;5.35;1.85;;;;;29.30;102032.00;;;;5088538;28;20209;-75
2022/05/14 12:45:02;;;;;;;4.90;2.50;;;;;29.40;102042.00;;;;5089481;28;20202;-75
2022/05/14 12:47:32;;;;;;;5.70;1.92;;;;;29.40;102028.00;;;;5088788;28;20580;-75